• Join FlightAware (Why Join?)
  • Login
  • US Flag 
11:50AM EDT


 

Airport Tracker/Info


-or-


 

Live Flight TrackerFlight Track Log ✈ N75NL ✈ 24-Aug-2013 ✈ KSUS - KCVX

Flight Track Log - Related Links

Times and Time Zones

All times are in EDT time to prevent confusion due to time zone crossing. See the N75NL flight status page for this flight to view local times or setup timezone preferences in your user account.

Time Position Orientation Groundspeed Altitude Reporting Facility
EDT Latitude Longitude Course Direction KTS MPH feet Rate Location/Type
10:35AM 38.9833 -90.7333 18° North 121 139 5,600  Level Gateway (St. Louis) TRACON
10:36AM 39.0167 -90.7333 360° North 121 139 6,100 420 Climbing Gateway (St. Louis) TRACON
10:37AM 39.0239 -90.7267 36° Northeast 120 138 6,300 480 Climbing Kansas City Center
10:38AM 39.0564 -90.7175 12° North 120 138 6,900 480 Climbing Kansas City Center
10:39AM 39.0917 -90.7094 10° North 123 142 7,300 300 Climbing Kansas City Center
10:40AM 39.1267 -90.7039 North 126 145 7,600 120 Climbing Kansas City Center
10:41AM 38.8820 -90.5602 18° North  Level Estimated
10:41AM 39.1658 -90.6964 North 132 152 7,600  Level Kansas City Center
10:42AM 39.2147 -90.6786 16° North 143 165 7,600  Level Kansas City Center
10:43AM 39.2536 -90.6544 26° Northeast 148 170 7,600  Level Kansas City Center
10:44AM 39.2928 -90.6319 24° Northeast 152 175 7,600  Level Kansas City Center
10:45AM 39.3306 -90.6100 24° Northeast 151 174 7,600  Level Kansas City Center
10:46AM 39.3692 -90.5889 23° Northeast 151 174 7,600  Level Kansas City Center
10:47AM 39.4089 -90.5667 23° Northeast 152 175 7,600  Level Kansas City Center
10:48AM 39.4492 -90.5478 20° North 154 177 7,600  Level Kansas City Center
10:49AM 39.4969 -90.5256 20° North 153 176 7,600  Level Kansas City Center
10:50AM 39.5375 -90.5092 17° North 153 176 7,600  Level Kansas City Center
10:51AM 39.5778 -90.4903 20° North 153 176 7,600  Level Kansas City Center
10:52AM 39.6183 -90.4733 18° North 155 178 7,600  Level Kansas City Center
10:53AM 39.6589 -90.4547 19° North 155 178 7,600  Level Kansas City Center
10:54AM 39.7000 -90.4367 19° North 156 180 7,600  Level Kansas City Center
10:55AM 39.7408 -90.4158 21° North 156 180 7,600  Level Kansas City Center
10:56AM 39.7825 -90.3961 20° North 159 183 7,600  Level Kansas City Center
10:57AM 39.8308 -90.3728 20° North 156 180 7,600  Level Kansas City Center
10:58AM 39.8722 -90.3544 19° North 157 181 7,600  Level Kansas City Center
10:59AM 39.9131 -90.3367 18° North 156 180 7,600  Level Kansas City Center
11:00AM 39.9544 -90.3172 20° North 157 181 7,600  Level Kansas City Center
11:01AM 39.9953 -90.2972 21° North 157 181 7,600  Level Kansas City Center
11:02AM 40.0364 -90.2772 20° North 158 182 7,600  Level Kansas City Center
11:03AM 40.0858 -90.2531 21° North 158 182 7,600  Level Kansas City Center
11:04AM 40.1258 -90.2350 19° North 155 178 7,600  Level Kansas City Center
11:05AM 40.1583 -90.2181 22° Northeast 157 181 7,600  Level Chicago Center
11:06AM 40.1978 -90.1981 21° North 153 176 7,600  Level Chicago Center
11:07AM 40.2472 -90.1742 20° North 159 183 7,600  Level Chicago Center
11:08AM 40.2872 -90.1542 21° North 155 178 7,600  Level Chicago Center
11:09AM 40.3289 -90.1344 20° North 158 182 7,600  Level Chicago Center
11:11AM 40.3694 -90.1158 19° North 155 178 7,600  Level Chicago Center
11:12AM 40.4111 -90.0939 22° Northeast 159 183 7,600  Level Chicago Center
11:13AM 40.4522 -90.0747 20° North 157 181 7,600  Level Chicago Center
11:14AM 40.4936 -90.0561 19° North 157 181 7,600  Level Chicago Center
11:15AM 40.5428 -90.0328 20° North 156 180 7,600  Level Chicago Center
11:16AM 40.5839 -90.0131 20° North 157 181 7,600  Level Chicago Center
11:17AM 40.6250 -89.9936 20° North 157 181 7,600  Level Chicago Center
11:18AM 40.6650 -89.9733 21° North 154 177 7,600  Level Chicago Center
11:19AM 40.7061 -89.9536 20° North 155 178 7,600  Level Chicago Center
11:20AM 40.7475 -89.9331 21° North 156 180 7,600  Level Chicago Center
11:21AM 40.7889 -89.9125 21° North 156 180 7,600  Level Chicago Center
11:22AM 40.8303 -89.8931 20° North 156 180 7,600  Level Chicago Center
11:23AM 40.8711 -89.8747 19° North 154 177 7,600  Level Chicago Center
11:24AM 40.9119 -89.8539 21° North 156 180 7,600  Level Chicago Center
11:25AM 40.9603 -89.8306 20° North 156 180 7,600  Level Chicago Center
11:26AM 41.0008 -89.8103 21° North 155 178 7,600  Level Chicago Center
11:27AM 41.0403 -89.7911 20° North 153 176 7,600  Level Chicago Center
11:28AM 41.0803 -89.7717 20° North 152 175 7,600  Level Chicago Center
11:29AM 41.1186 -89.7511 22° Northeast 149 171 7,600  Level Chicago Center
11:30AM 41.1583 -89.7319 20° North 150 173 7,600  Level Chicago Center
11:31AM 41.1958 -89.7119 22° Northeast 147 169 7,600  Level Chicago Center
11:32AM 41.2439 -89.6897 19° North 150 173 7,600  Level Chicago Center
11:33AM 41.2814 -89.6703 21° North 146 168 7,600  Level Chicago Center
11:34AM 41.3211 -89.6525 19° North 149 171 7,600  Level Chicago Center
11:35AM 41.3592 -89.6333 21° North 147 169 7,600  Level Chicago Center
11:36AM 41.3981 -89.6139 21° North 147 169 7,600  Level Chicago Center
11:37AM 41.4375 -89.5950 20° North 150 173 7,600  Level Chicago Center
11:38AM 41.4744 -89.5756 22° Northeast 145 167 7,600  Level Chicago Center
11:39AM 41.5139 -89.5561 20° North 149 171 7,600  Level Chicago Center
11:40AM 41.5558 -89.5364 19° North 150 173 7,600  Level Chicago Center
11:41AM 41.5947 -89.5156 22° Northeast 150 173 7,600  Level Chicago Center
11:42AM 41.6414 -89.4911 21° North 150 173 7,600  Level Chicago Center
11:43AM 41.6803 -89.4714 21° North 150 173 7,600  Level Chicago Center
11:44AM 41.7197 -89.4531 19° North 151 174 7,600  Level Chicago Center
11:46AM 41.7564 -89.4344 21° North 144 166 7,600  Level Chicago Center
11:47AM 41.7967 -89.4136 21° North 154 177 7,600  Level Chicago Center
11:48AM 41.8372 -89.3967 17° North 153 176 7,600  Level Chicago Center
11:49AM 41.8842 -89.3744 19° North 150 173 7,600  Level Chicago Center
11:50AM 41.9239 -89.3586 17° North 150 173 7,600  Level Chicago Center
11:51AM 41.9581 -89.3283 33° Northeast 149 171 7,600  Level Chicago Center
11:52AM 41.9900 -89.2939 39° Northeast 148 170 7,600  Level Chicago Center
11:53AM 42.0203 -89.2575 42° Northeast 147 169 7,600  Level Chicago Center
11:54AM 42.0506 -89.2178 44° Northeast 149 171 7,600  Level Chicago Center
11:55AM 42.0858 -89.1739 43° Northeast 154 177 7,700  Climbing Chicago Center
11:56AM 42.1175 -89.1356 42° Northeast 154 177 7,600 -60 Descending Chicago Center
11:57AM 42.1497 -89.0978 41° Northeast 154 177 7,600  Level Chicago Center
11:58AM 42.1878 -89.0528 41° Northeast 157 181 7,600  Level Chicago Center
11:59AM 42.2197 -89.0150 41° Northeast 155 178 7,700  Climbing Chicago Center
12:00PM 42.2525 -88.9781 40° Northeast 153 176 7,600 -60 Descending Chicago Center
12:01PM 42.2856 -88.9417 39° Northeast 154 177 7,600  Level Chicago Center
12:02PM 42.3194 -88.9050 39° Northeast 156 180 7,600  Level Chicago Center
12:03PM 42.3517 -88.8714 38° Northeast 149 171 7,700  Climbing Chicago Center
12:04PM 42.3853 -88.8328 40° Northeast 156 180 7,700 -60 Level Chicago Center
12:05PM 42.4228 -88.7878 42° Northeast 155 178 7,600 -60 Descending Chicago Center
12:06PM 42.4558 -88.7517 39° Northeast 153 176 7,600  Level Chicago Center
12:07PM 42.4869 -88.7153 41° Northeast 149 171 7,700  Climbing Chicago Center
12:08PM 42.5206 -88.6775 40° Northeast 153 176 7,700  Level Chicago Center
12:09PM 42.5525 -88.6389 42° Northeast 154 177 7,700 -60 Level Chicago Center
12:10PM 42.5856 -88.6019 39° Northeast 153 176 7,600  Descending Chicago Center
12:11PM 42.6239 -88.5575 40° Northeast 155 178 7,700  Climbing Chicago Center
12:12PM 42.6564 -88.5208 40° Northeast 153 176 7,700  Level Chicago Center
12:13PM 42.6883 -88.4819 42° Northeast 154 177 7,700  Level Chicago Center
12:14PM 42.7203 -88.4431 42° Northeast 154 177 7,700  Level Chicago Center
12:15PM 42.7533 -88.4064 39° Northeast 154 177 7,700 -60 Level Chicago Center
12:16PM 42.7858 -88.3692 40° Northeast 154 177 7,600  Descending Chicago Center
12:17PM 42.8244 -88.3261 39° Northeast 153 176 7,700  Climbing Chicago Center
12:18PM 42.8611 -88.2933 33° Northeast 157 181 7,600  Descending Chicago Center
12:19PM 42.8975 -88.2642 30° Northeast 154 177 7,700  Climbing Chicago Center
12:21PM 42.9336 -88.2339 32° Northeast 153 176 7,700  Level Chicago Center
12:22PM 42.9694 -88.2042 31° Northeast 152 175 7,700  Level Chicago Center
12:23PM 43.0108 -88.1694 32° Northeast 151 174 7,700  Level Chicago Center
12:24PM 43.0467 -88.1367 34° Northeast 154 177 7,700  Level Chicago Center
12:25PM 43.0822 -88.1061 32° Northeast 151 174 7,700  Level Chicago Center
12:26PM 43.1181 -88.0739 33° Northeast 154 177 7,700  Level Chicago Center
12:27PM 43.1531 -88.0417 34° Northeast 153 176 7,700  Level Chicago Center
12:28PM 43.1944 -88.0050 33° Northeast 152 175 7,700  Level Chicago Center
12:29PM 43.2297 -87.9750 32° Northeast 150 173 7,700  Level Chicago Center
12:30PM 43.2639 -87.9444 33° Northeast 147 169 7,700  Level Chicago Center
12:31PM 43.2992 -87.9136 32° Northeast 149 171 7,700  Level Chicago Center
12:32PM 43.3358 -87.8853 29° Northeast 151 174 7,700  Level Chicago Center
12:33PM 43.3706 -87.8556 32° Northeast 148 170 7,700  Level Chicago Center
12:34PM 43.4142 -87.8264 26° Northeast 149 171 7,700  Level Chicago Center
12:35PM 43.4525 -87.8036 23° Northeast 149 171 7,700  Level Chicago Center
12:36PM 43.4906 -87.7828 22° Northeast 149 171 7,700  Level Chicago Center
12:37PM 43.5294 -87.7628 20° North 148 170 7,700  Level Chicago Center
12:38PM 43.5692 -87.7436 19° North 150 173 7,700  Level Chicago Center
12:39PM 43.6144 -87.7242 17° North 147 169 7,700  Level Chicago Center
12:40PM 43.6547 -87.7106 14° North 148 170 7,700  Level Chicago Center
12:41PM 43.6950 -87.6947 16° North 149 171 7,700  Level Chicago Center
12:42PM 43.7347 -87.6794 16° North 149 171 7,700  Level Chicago Center
12:43PM 43.7756 -87.6686 11° North 149 171 7,700  Level Chicago Center
12:44PM 43.8228 -87.6561 11° North 149 171 7,700  Level Chicago Center
12:45PM 43.8622 -87.6444 12° North 146 168 7,700  Level Chicago Center
12:46PM 43.9031 -87.6356 North 148 170 7,700  Level Chicago Center
12:47PM 43.9425 -87.6264 North 145 167 7,700  Level Chicago Center
12:48PM 43.9831 -87.6167 10° North 146 168 7,700  Level Chicago Center
12:49PM 44.0233 -87.6067 10° North 146 168 7,700  Level Chicago Center
12:50PM 44.0689 -87.5931 12° North 144 166 7,700  Level Chicago Center
12:51PM 44.1078 -87.5728 21° North 148 170 7,700  Level Chicago Center
12:53PM 44.1394 -87.5381 38° Northeast 147 169 7,700  Level Chicago Center
12:54PM 44.1647 -87.4908 53° Northeast 150 173 7,700  Level Chicago Center
12:55PM 44.1914 -87.4475 49° Northeast 147 169 7,700  Level Chicago Center
12:57PM 44.2447 -87.3915 37° Northeast  Level FlightAware Approximate
01:04PM 44.4320 -87.0591 56° Northeast  Level FlightAware Approximate
01:05PM 44.4559 -87.0090 56° Northeast  Level FlightAware Approximate
01:06PM 44.4799 -86.9589 56° Northeast  Level FlightAware Approximate
01:07PM 44.5039 -86.9089 55° Northeast  Level FlightAware Approximate
01:08PM 44.5286 -86.8596 55° Northeast  Level FlightAware Approximate
01:09PM 44.5534 -86.8102 55° Northeast  Level FlightAware Approximate
01:10PM 44.5781 -86.7607 55° Northeast  Level FlightAware Approximate
01:11PM 44.6028 -86.7112 55° Northeast  Level FlightAware Approximate
01:12PM 44.6274 -86.6617 55° Northeast  Level FlightAware Approximate
01:13PM 44.6521 -86.6122 55° Northeast  Level FlightAware Approximate
01:14PM 44.6767 -86.5625 55° Northeast  Level FlightAware Approximate
01:15PM 44.7013 -86.5129 55° Northeast  Level FlightAware Approximate
01:16PM 44.7259 -86.4632 55° Northeast  Level FlightAware Approximate
01:17PM 44.7505 -86.4135 55° Northeast  Level FlightAware Approximate
01:18PM 44.7750 -86.3637 55° Northeast  Level FlightAware Approximate
01:19PM 44.7995 -86.3139 55° Northeast  Level FlightAware Approximate
01:20PM 44.8240 -86.2640 55° Northeast  Level FlightAware Approximate
01:21PM 44.8485 -86.2141 55° Northeast  Level FlightAware Approximate
01:22PM 44.8730 -86.1642 55° Northeast  Level FlightAware Approximate
01:23PM 44.8974 -86.1142 55° Northeast  Level FlightAware Approximate
01:24PM 44.9218 -86.0642 55° Northeast  Level FlightAware Approximate
01:25PM 44.9462 -86.0141 55° Northeast  Level FlightAware Approximate
01:26PM 44.9706 -85.9640 55° Northeast  Level FlightAware Approximate
01:27PM 44.9949 -85.9138 56° Northeast  Level FlightAware Approximate
01:28PM 45.0192 -85.8636 56° Northeast  Level FlightAware Approximate
01:29PM 45.0435 -85.8134 56° Northeast  Level FlightAware Approximate
01:30PM 45.0656 -85.7611 60° Northeast  Level FlightAware Approximate
01:31PM 45.0868 -85.7081 60° Northeast  Level FlightAware Approximate
01:32PM 45.1080 -85.6551 60° Northeast  Level FlightAware Approximate
01:33PM 45.1314 -85.6040 55° Northeast  Level FlightAware Approximate
01:34PM 45.1562 -85.5542 55° Northeast  Level FlightAware Approximate
01:35PM 45.1819 -85.5052 53° Northeast  Level FlightAware Approximate
01:36PM 45.2080 -85.4567 53° Northeast  Level FlightAware Approximate
01:37PM 45.2342 -85.4082 53° Northeast  Level FlightAware Approximate
01:38PM 45.2603 -85.3596 53° Northeast  Level FlightAware Approximate
01:39PM 45.2855 -85.3102 65° Northeast  Level FlightAware Approximate
01:40PM 45.3000 -85.2667 65° Northeast  Level FlightAware Approximate
01:41PM 45.3048 -85.2753 65° Northeast  Level Estimated
01:42PM 45.3048 -85.2753 65° Northeast  Level Estimated
01:43PM 45.3048 -85.2753 65° Northeast  Level Estimated
01:44PM 45.3048 -85.2753 65° Northeast  Level Estimated
01:45PM 45.3048 -85.2753 65° Northeast  Level Estimated
01:46PM 45.3048 -85.2753 65° Northeast  Level Estimated
01:47PM 45.3048 -85.2753 65° Northeast  Level Estimated
01:48PM 45.3048 -85.2753 65° Northeast  Level Estimated
01:49PM 45.3048 -85.2753 65° Northeast  Level Estimated
01:50PM 45.3048 -85.2753 65° Northeast  Level Estimated
01:51PM 45.3048 -85.2753 65° Northeast  Level Estimated
01:52PM 45.3048 -85.2753 65° Northeast  Level Estimated
01:53PM 45.3048 -85.2753 65° Northeast  Level Estimated
01:54PM 45.3048 -85.2753 65° Northeast  Level Estimated
01:55PM 45.3048 -85.2753 65° Northeast  Level Estimated
01:56PM 45.3048 -85.2753 65° Northeast  Level Estimated
01:57PM 45.3048 -85.2753 65° Northeast  Level Estimated
01:58PM 45.3048 -85.2753 65° Northeast  Level Estimated
01:59PM 45.3048 -85.2753 65° Northeast  Level Estimated
02:00PM 45.3048 -85.2753 65° Northeast  Level Estimated